Tain, United Kingdom
Current Conditions -  °F | °C
As of 2:50 AM on Sunday 26 Oct 2014 (Local Time) from EGPE Reporting Station
Light Rain Light Rain  
Wind Chill: 10°   Ceiling: Unl
Heat Index: 10°   Visibility: 5mi
Dew Point:   Wind: 25mph
Humidity: 94%   Direction: 210°SSW
Pressure: 29.41"   Gusts: NA
Location:  57.81°N, 4.06°W
Report Text: EGPE 260150Z AUTO 21022KT 8000 -RA SCT040/// 10/09 Q0996 RERA
Loading
Personal Weather Stations






























Interactive Weather Map
Tropical Storm Tracking
New forecast layout! Learn more

10-Day Weather Forecast

Advertisements
Track Severe Weather on mobile